Time;durP1;ratioP1;P1;durP2;ratioP2;P2;SDS_P1;SDS_P2;PMS_P1;PMS_P2;Temp;Humidity;BMP_temperature;BMP_pressure;BME280_temperature;BME280_humidity;BME280_pressure;Samples;Min_cycle;Max_cycle;Signal;HPM_P1;HPM_P2
2022/11/03 00:01:04;;;;;;;5.30;3.77;;;;;;;;;;4965521;28;20346;-89
2022/11/03 00:04:11;;;;;;;7.57;3.83;;;;;;;;;;4964151;28;20526;-89
2022/11/03 00:07:20;;;;;;;6.93;3.80;;;;;;;;;;4974616;28;20206;-89
2022/11/03 00:10:24;;;;;;;4.93;3.63;;;;;;;;;;4976684;28;20542;-89
2022/11/03 00:13:28;;;;;;;5.50;3.90;;;;;;;;;;4964433;28;20669;-89
2022/11/03 00:16:33;;;;;;;6.40;3.43;;;;;;;;;;4963667;28;20178;-89
2022/11/03 00:19:37;;;;;;;8.97;3.93;;;;;;;;;;4975784;28;20225;-89
2022/11/03 00:22:41;;;;;;;7.93;3.67;;;;;;;;;;4985493;28;20190;-89
2022/11/03 00:25:45;;;;;;;7.20;3.50;;;;;;;;;;4974914;28;20602;-89
2022/11/03 00:28:51;;;;;;;6.63;4.13;;;;;;;;;;4989217;28;20684;-89
2022/11/03 00:31:55;;;;;;;5.50;4.07;;;;;;;;;;4978444;28;20186;-89
2022/11/03 00:35:00;;;;;;;7.10;4.23;;;;;;;;;;4978684;28;20214;-89
2022/11/03 00:38:04;;;;;;;7.90;4.10;;;;;;;;;;4978381;28;20186;-89
2022/11/03 00:41:09;;;;;;;7.20;4.40;;;;;;;;;;4978903;28;20174;-89
2022/11/03 00:44:13;;;;;;;6.23;4.10;;;;;;;;;;4977883;28;20178;-88
2022/11/03 00:47:17;;;;;;;6.67;4.03;;;;;;;;;;4980611;28;20182;-89
2022/11/03 00:50:22;;;;;;;8.50;3.87;;;;;;;;;;4995586;28;20186;-89
2022/11/03 00:53:27;;;;;;;6.80;4.70;;;;;;;;;;4972041;28;20214;-89
2022/11/03 00:56:37;;;;;;;9.47;4.97;;;;;;;;;;4993981;28;20524;-89
2022/11/03 00:59:41;;;;;;;9.07;5.20;;;;;;;;;;4981804;28;20226;-89
2022/11/03 01:02:46;;;;;;;8.20;4.60;;;;;;;;;;4981568;28;20190;-89
2022/11/03 01:09:13;;;;;;;6.20;4.17;;;;;;;;;;4991755;28;20226;-89
2022/11/03 01:12:18;;;;;;;9.40;4.00;;;;;;;;;;4991484;28;20186;-89
2022/11/03 01:15:22;;;;;;;9.17;4.80;;;;;;;;;;4979765;28;20682;-89
2022/11/03 01:18:27;;;;;;;13.20;4.97;;;;;;;;;;4990676;28;20222;-89
2022/11/03 01:21:31;;;;;;;8.47;4.30;;;;;;;;;;4979057;28;20633;-89
2022/11/03 01:24:35;;;;;;;7.47;4.70;;;;;;;;;;4989890;28;20182;-89
2022/11/03 01:27:39;;;;;;;8.17;5.37;;;;;;;;;;4989481;28;20190;-89
2022/11/03 01:30:43;;;;;;;11.57;4.93;;;;;;;;;;4987898;28;20179;-89
2022/11/03 01:33:51;;;;;;;6.87;4.40;;;;;;;;;;4988180;28;20217;-89
2022/11/03 01:36:55;;;;;;;11.40;4.47;;;;;;;;;;4976254;28;20206;-89
2022/11/03 01:40:00;;;;;;;7.47;4.67;;;;;;;;;;4986847;28;20575;-89
2022/11/03 01:43:21;;;;;;;5.97;4.50;;;;;;;;;;4986808;28;20657;-89
2022/11/03 01:46:28;;;;;;;5.83;4.40;;;;;;;;;;4986818;28;20186;-89
2022/11/03 01:49:41;;;;;;;8.83;4.00;;;;;;;;;;4985210;28;20226;-89
2022/11/03 01:52:53;;;;;;;6.83;3.93;;;;;;;;;;4974059;28;20542;-89
2022/11/03 01:55:59;;;;;;;9.80;4.77;;;;;;;;;;4974070;28;20196;-89
2022/11/03 01:59:03;;;;;;;12.80;4.13;;;;;;;;;;4973610;28;20225;-89
2022/11/03 02:02:08;;;;;;;7.50;3.87;;;;;;;;;;4974319;28;20511;-89
2022/11/03 02:05:15;;;;;;;5.80;4.67;;;;;;;;;;4974098;28;20178;-89
2022/11/03 02:08:37;;;;;;;7.60;4.07;;;;;;;;;;4984709;28;20700;-89
2022/11/03 02:15:08;;;;;;;5.80;3.73;;;;;;;;;;4984614;28;20214;-89
2022/11/03 02:18:13;;;;;;;5.93;4.10;;;;;;;;;;4973479;28;20222;-88
2022/11/03 02:21:34;;;;;;;7.47;3.57;;;;;;;;;;4980486;28;20205;-88
2022/11/03 02:25:13;;;;;;;7.63;3.63;;;;;;;;;;5005545;28;20194;-89
2022/11/03 02:28:24;;;;;;;6.53;3.60;;;;;;;;;;4981708;28;20225;-87
2022/11/03 02:31:40;;;;;;;6.93;3.37;;;;;;;;;;4992618;28;20629;-88
2022/11/03 02:34:53;;;;;;;8.57;3.70;;;;;;;;;;5003244;28;20221;-88
2022/11/03 02:37:59;;;;;;;5.37;3.80;;;;;;;;;;4992284;28;20186;-88
2022/11/03 02:41:07;;;;;;;6.60;3.70;;;;;;;;;;4979642;28;20197;-87
2022/11/03 02:44:16;;;;;;;7.43;3.93;;;;;;;;;;4989370;28;20201;-88
2022/11/03 02:47:22;;;;;;;9.53;3.80;;;;;;;;;;4990694;28;20185;-87
2022/11/03 02:50:29;;;;;;;6.17;3.50;;;;;;;;;;4986853;28;20194;-88
2022/11/03 02:53:41;;;;;;;5.27;3.47;;;;;;;;;;4987353;28;20205;-87
2022/11/03 02:56:52;;;;;;;6.37;3.43;;;;;;;;;;4978294;28;20193;-88
2022/11/03 03:00:05;;;;;;;4.57;3.63;;;;;;;;;;4978548;28;20217;-87
2022/11/03 03:03:19;;;;;;;5.23;3.40;;;;;;;;;;4985541;28;20197;-88
2022/11/03 03:06:35;;;;;;;6.90;3.50;;;;;;;;;;4994841;28;20181;-87
2022/11/03 03:09:45;;;;;;;6.67;3.37;;;;;;;;;;4984308;28;20224;-88
2022/11/03 03:12:53;;;;;;;4.63;3.13;;;;;;;;;;4996565;28;20645;-88
2022/11/03 03:16:14;;;;;;;5.37;3.80;;;;;;;;;;4997799;28;20553;-88
2022/11/03 03:19:22;;;;;;;6.90;3.70;;;;;;;;;;5009415;28;20217;-88
2022/11/03 03:22:45;;;;;;;5.03;3.57;;;;;;;;;;4997486;28;20637;-88
2022/11/03 03:26:00;;;;;;;8.40;3.57;;;;;;;;;;4986888;28;20182;-88
2022/11/03 03:29:26;;;;;;;4.90;3.33;;;;;;;;;;4989540;28;20229;-88
2022/11/03 03:32:36;;;;;;;5.40;3.73;;;;;;;;;;4986960;28;20190;-88
2022/11/03 03:35:45;;;;;;;4.87;3.97;;;;;;;;;;4986718;28;20209;-88
2022/11/03 03:38:55;;;;;;;6.27;4.33;;;;;;;;;;4986991;28;20221;-87
2022/11/03 03:42:01;;;;;;;5.63;4.37;;;;;;;;;;4984034;28;20526;-88
2022/11/03 03:45:07;;;;;;;10.70;4.93;;;;;;;;;;4986981;28;20178;-88
2022/11/03 03:48:12;;;;;;;7.00;4.30;;;;;;;;;;4998109;28;20229;-88
2022/11/03 03:51:21;;;;;;;6.00;4.47;;;;;;;;;;4997903;28;20209;-88
2022/11/03 03:54:26;;;;;;;6.03;4.20;;;;;;;;;;4987234;28;20237;-87
2022/11/03 03:57:30;;;;;;;6.47;4.17;;;;;;;;;;4986212;28;20680;-87
2022/11/03 04:00:34;;;;;;;6.27;4.20;;;;;;;;;;4997772;28;20189;-87
2022/11/03 04:03:39;;;;;;;12.67;4.67;;;;;;;;;;4997662;28;20185;-87
2022/11/03 04:06:43;;;;;;;8.90;4.53;;;;;;;;;;4986573;28;20185;-87
2022/11/03 04:09:47;;;;;;;8.83;4.70;;;;;;;;;;4986576;28;20217;-88
2022/11/03 04:23:00;;;;;;;7.43;4.80;;;;;;;;;;4994326;28;20185;-87
2022/11/03 04:26:09;;;;;;;6.30;4.47;;;;;;;;;;4994171;28;20640;-87
2022/11/03 04:29:14;;;;;;;6.20;4.30;;;;;;;;;;4983258;28;20217;-87
2022/11/03 04:32:18;;;;;;;6.87;4.70;;;;;;;;;;4983171;28;20193;-87
2022/11/03 04:35:27;;;;;;;7.67;4.33;;;;;;;;;;4983127;28;20213;-87
2022/11/03 04:38:31;;;;;;;7.17;4.50;;;;;;;;;;4993554;28;20221;-87
2022/11/03 04:41:37;;;;;;;6.23;4.37;;;;;;;;;;4994507;28;20185;-88
2022/11/03 04:44:42;;;;;;;7.67;5.03;;;;;;;;;;4982818;28;20205;-87
2022/11/03 04:47:46;;;;;;;5.57;4.40;;;;;;;;;;4993760;28;20684;-87
2022/11/03 04:50:56;;;;;;;7.03;4.77;;;;;;;;;;4983006;28;20186;-87
2022/11/03 04:54:12;;;;;;;8.30;5.10;;;;;;;;;;4982531;28;20522;-88
2022/11/03 04:57:17;;;;;;;8.03;5.73;;;;;;;;;;4993438;28;20534;-87
2022/11/03 05:00:21;;;;;;;7.13;4.83;;;;;;;;;;5004447;28;20656;-87
2022/11/03 05:03:30;;;;;;;8.80;5.40;;;;;;;;;;4981930;28;20205;-87
2022/11/03 05:06:34;;;;;;;6.27;4.70;;;;;;;;;;4992849;28;20197;-87
2022/11/03 05:09:38;;;;;;;8.60;4.93;;;;;;;;;;4981731;28;20680;-87
2022/11/03 05:12:42;;;;;;;7.90;4.97;;;;;;;;;;4982486;28;20205;-87
2022/11/03 05:15:48;;;;;;;6.23;4.83;;;;;;;;;;4981962;28;20569;-87
2022/11/03 05:18:52;;;;;;;6.53;4.47;;;;;;;;;;4982266;28;20558;-87
2022/11/03 05:21:58;;;;;;;8.70;4.97;;;;;;;;;;4981911;28;20205;-87
2022/11/03 05:25:42;;;;;;;6.27;4.70;;;;;;;;;;4981794;28;20182;-87
2022/11/03 05:28:58;;;;;;;8.60;5.30;;;;;;;;;;4992945;28;20225;-87
2022/11/03 05:32:02;;;;;;;11.00;5.67;;;;;;;;;;4993196;28;20186;-87
2022/11/03 05:35:19;;;;;;;7.73;4.83;;;;;;;;;;4986748;28;20225;-87
2022/11/03 05:38:27;;;;;;;9.77;4.60;;;;;;;;;;4981470;28;20233;-86
2022/11/03 05:41:33;;;;;;;6.80;4.70;;;;;;;;;;5004953;28;20196;-86
2022/11/03 05:44:39;;;;;;;8.03;5.43;;;;;;;;;;4992936;28;20263;-87
2022/11/03 05:47:44;;;;;;;11.00;4.50;;;;;;;;;;4993736;28;20185;-87
2022/11/03 05:50:48;;;;;;;7.43;4.57;;;;;;;;;;4993773;28;20185;-87
2022/11/03 05:53:55;;;;;;;6.80;4.70;;;;;;;;;;4997508;28;20204;-86
2022/11/03 05:57:00;;;;;;;18.60;5.30;;;;;;;;;;5001935;28;20529;-86
2022/11/03 06:00:18;;;;;;;17.50;4.40;;;;;;;;;;5024223;28;20220;-86
2022/11/03 06:03:26;;;;;;;16.43;3.70;;;;;;;;;;4990606;28;20185;-87
2022/11/03 06:06:37;;;;;;;14.60;4.07;;;;;;;;;;5013271;28;20518;-88
2022/11/03 06:09:41;;;;;;;11.07;3.37;;;;;;;;;;5002214;28;20216;-87
2022/11/03 06:12:45;;;;;;;4.83;3.10;;;;;;;;;;5012891;28;20189;-87
2022/11/03 06:15:55;;;;;;;4.80;3.30;;;;;;;;;;5000826;28;20208;-87
2022/11/03 06:19:01;;;;;;;4.17;3.10;;;;;;;;;;5000628;28;20287;-87
2022/11/03 06:22:27;;;;;;;4.40;3.67;;;;;;;;;;5012196;28;20181;-87
2022/11/03 06:25:35;;;;;;;6.40;3.00;;;;;;;;;;5011580;28;20185;-87
2022/11/03 06:28:39;;;;;;;3.50;3.20;;;;;;;;;;5011933;28;20224;-87
2022/11/03 06:31:48;;;;;;;3.77;3.47;;;;;;;;;;5023240;28;20528;-87
2022/11/03 06:34:55;;;;;;;7.37;4.30;;;;;;;;;;5000591;28;20185;-87
2022/11/03 06:38:00;;;;;;;7.47;3.83;;;;;;;;;;5010777;28;20548;-87
2022/11/03 06:41:04;;;;;;;7.90;4.37;;;;;;;;;;5000087;28;20177;-88
2022/11/03 06:44:22;;;;;;;11.20;3.77;;;;;;;;;;5000415;28;20516;-87
2022/11/03 06:47:28;;;;;;;3.47;3.03;;;;;;;;;;5000132;28;20633;-88
2022/11/03 06:50:32;;;;;;;3.70;2.90;;;;;;;;;;5010828;28;20200;-87
2022/11/03 06:53:36;;;;;;;3.33;2.87;;;;;;;;;;5012379;28;20540;-86
2022/11/03 06:56:40;;;;;;;3.37;2.70;;;;;;;;;;5011776;28;20229;-86
2022/11/03 06:59:45;;;;;;;3.40;2.80;;;;;;;;;;5011404;28;20224;-86
2022/11/03 07:02:53;;;;;;;4.27;3.10;;;;;;;;;;5011889;28;20185;-86
2022/11/03 07:06:18;;;;;;;6.23;2.83;;;;;;;;;;5000596;28;20181;-86
2022/11/03 07:09:26;;;;;;;4.03;2.70;;;;;;;;;;5023261;28;20220;-87
2022/11/03 07:12:30;;;;;;;4.13;2.40;;;;;;;;;;5012159;28;20185;-86
2022/11/03 07:15:38;;;;;;;3.80;3.10;;;;;;;;;;5000738;28;20656;-86
2022/11/03 07:18:43;;;;;;;5.10;3.77;;;;;;;;;;5000579;28;20225;-87
2022/11/03 07:21:50;;;;;;;5.77;2.87;;;;;;;;;;5011634;28;20189;-86
2022/11/03 07:24:56;;;;;;;3.33;2.80;;;;;;;;;;5013429;28;20628;-86
2022/11/03 07:28:01;;;;;;;2.73;2.50;;;;;;;;;;5017059;28;20181;-86
2022/11/03 07:31:14;;;;;;;3.47;2.67;;;;;;;;;;5006842;28;20181;-86
2022/11/03 07:34:23;;;;;;;3.70;3.00;;;;;;;;;;4993029;28;20201;-86
2022/11/03 07:37:27;;;;;;;3.07;2.50;;;;;;;;;;4993435;28;20178;-86
2022/11/03 07:40:33;;;;;;;4.70;3.90;;;;;;;;;;4992941;28;20561;-86
2022/11/03 07:43:37;;;;;;;6.63;5.37;;;;;;;;;;5001816;28;20185;-86
2022/11/03 07:46:50;;;;;;;9.23;4.10;;;;;;;;;;5012677;28;20665;-86
2022/11/03 07:49:56;;;;;;;4.47;4.07;;;;;;;;;;5014349;28;20220;-86
2022/11/03 07:53:00;;;;;;;5.87;3.83;;;;;;;;;;5009446;28;20177;-86
2022/11/03 07:56:20;;;;;;;4.77;3.57;;;;;;;;;;5005934;28;20213;-86
2022/11/03 07:59:34;;;;;;;5.97;3.80;;;;;;;;;;4995648;28;20221;-86
2022/11/03 08:02:47;;;;;;;6.20;4.20;;;;;;;;;;4996471;28;20201;-86
2022/11/03 08:05:52;;;;;;;5.30;3.90;;;;;;;;;;5016565;28;20181;-86
2022/11/03 08:08:56;;;;;;;3.83;3.43;;;;;;;;;;5015578;28;20224;-86
2022/11/03 08:12:00;;;;;;;3.97;3.50;;;;;;;;;;5014920;28;20189;-86
2022/11/03 08:15:04;;;;;;;3.93;3.53;;;;;;;;;;5003463;28;20184;-86
2022/11/03 08:18:09;;;;;;;4.83;3.30;;;;;;;;;;5015164;28;20217;-86
2022/11/03 08:21:13;;;;;;;6.20;4.33;;;;;;;;;;5015381;28;20185;-86
2022/11/03 08:24:17;;;;;;;4.53;3.50;;;;;;;;;;5003912;28;20529;-86
2022/11/03 08:27:21;;;;;;;4.00;3.50;;;;;;;;;;5032985;28;20172;-86
2022/11/03 08:30:26;;;;;;;5.77;4.20;;;;;;;;;;5024203;28;20181;-86
2022/11/03 08:33:31;;;;;;;7.97;3.80;;;;;;;;;;5026665;28;20181;-87
2022/11/03 08:36:36;;;;;;;6.77;4.97;;;;;;;;;;5013279;28;20224;-86
2022/11/03 08:39:40;;;;;;;22.20;14.73;;;;;;;;;;5022229;28;20237;-86
2022/11/03 08:42:44;;;;;;;23.63;13.27;;;;;;;;;;5025166;28;20185;-87
2022/11/03 08:45:55;;;;;;;11.97;8.17;;;;;;;;;;5013763;28;20659;-86
2022/11/03 08:49:00;;;;;;;14.00;7.40;;;;;;;;;;5025451;28;20220;-87
2022/11/03 08:52:05;;;;;;;9.73;7.20;;;;;;;;;;5013341;28;20181;-87
2022/11/03 08:55:09;;;;;;;10.87;7.83;;;;;;;;;;5034855;28;20188;-86
2022/11/03 08:58:13;;;;;;;13.70;7.83;;;;;;;;;;5034086;28;20212;-86
2022/11/03 09:01:17;;;;;;;22.67;12.33;;;;;;;;;;5019720;28;20211;-86
2022/11/03 09:04:22;;;;;;;21.53;11.87;;;;;;;;;;5031877;28;20204;-86
2022/11/03 09:07:26;;;;;;;14.53;10.73;;;;;;;;;;5008582;28;20201;-87
2022/11/03 09:10:31;;;;;;;14.77;9.13;;;;;;;;;;5021123;28;20181;-86
2022/11/03 09:13:35;;;;;;;14.33;9.50;;;;;;;;;;5020796;28;20189;-86
2022/11/03 09:16:39;;;;;;;15.80;10.50;;;;;;;;;;5020680;28;20216;-86
2022/11/03 09:19:43;;;;;;;15.00;10.77;;;;;;;;;;5028183;28;20220;-86
2022/11/03 09:22:47;;;;;;;17.67;10.40;;;;;;;;;;5028021;28;20192;-86
2022/11/03 09:25:52;;;;;;;13.80;9.70;;;;;;;;;;5027827;28;20176;-86
2022/11/03 09:28:56;;;;;;;11.20;8.73;;;;;;;;;;5030651;28;20224;-86
2022/11/03 09:32:00;;;;;;;10.90;8.93;;;;;;;;;;5003697;28;20180;-86
2022/11/03 09:35:06;;;;;;;11.20;8.20;;;;;;;;;;5014556;28;20640;-87
2022/11/03 09:38:11;;;;;;;12.90;8.63;;;;;;;;;;5015402;28;20216;-87
2022/11/03 09:41:18;;;;;;;11.27;8.80;;;;;;;;;;5014039;28;20177;-87
2022/11/03 09:44:23;;;;;;;9.93;7.90;;;;;;;;;;5013388;28;20173;-87
2022/11/03 09:47:34;;;;;;;9.10;7.33;;;;;;;;;;5001732;28;20177;-87
2022/11/03 09:50:38;;;;;;;14.03;7.87;;;;;;;;;;5002518;28;20624;-87
2022/11/03 09:53:43;;;;;;;10.07;7.57;;;;;;;;;;5013017;28;20540;-87
2022/11/03 09:56:47;;;;;;;14.83;7.57;;;;;;;;;;5014267;28;20212;-87
2022/11/03 09:59:51;;;;;;;8.50;7.30;;;;;;;;;;5005308;28;20692;-87
2022/11/03 10:02:55;;;;;;;9.10;7.80;;;;;;;;;;5009768;28;20189;-87
2022/11/03 10:06:01;;;;;;;11.03;8.13;;;;;;;;;;5012950;28;20521;-87
2022/11/03 10:09:11;;;;;;;11.57;8.60;;;;;;;;;;5024251;28;20220;-87
2022/11/03 10:12:15;;;;;;;11.53;7.93;;;;;;;;;;5000049;28;20604;-87
2022/11/03 10:15:22;;;;;;;9.53;8.00;;;;;;;;;;5022661;28;20208;-87
2022/11/03 10:18:27;;;;;;;9.47;7.87;;;;;;;;;;5012352;28;20204;-87
2022/11/03 10:21:34;;;;;;;11.40;8.87;;;;;;;;;;5001500;28;20180;-87
2022/11/03 10:24:38;;;;;;;9.07;7.93;;;;;;;;;;5012115;28;20185;-87
2022/11/03 10:27:42;;;;;;;10.00;8.17;;;;;;;;;;5000734;28;20188;-87
2022/11/03 10:30:49;;;;;;;9.87;7.17;;;;;;;;;;5023400;28;20185;-87
2022/11/03 10:33:54;;;;;;;11.27;7.97;;;;;;;;;;5023657;28;20177;-87
2022/11/03 10:37:12;;;;;;;11.43;8.23;;;;;;;;;;5012186;28;20216;-87
2022/11/03 10:40:35;;;;;;;12.37;8.40;;;;;;;;;;5012249;28;20663;-87
2022/11/03 10:43:42;;;;;;;9.07;7.60;;;;;;;;;;5012054;28;20185;-87
2022/11/03 10:46:58;;;;;;;12.07;8.17;;;;;;;;;;5000696;28;20181;-86
2022/11/03 10:50:21;;;;;;;11.33;7.87;;;;;;;;;;5000792;28;20220;-87
2022/11/03 10:53:25;;;;;;;8.60;7.20;;;;;;;;;;5000281;28;20527;-87
2022/11/03 10:56:31;;;;;;;10.43;8.23;;;;;;;;;;5000257;28;20208;-87
2022/11/03 10:59:37;;;;;;;9.57;7.53;;;;;;;;;;4999745;28;20239;-87
2022/11/03 11:02:48;;;;;;;11.10;8.37;;;;;;;;;;5023112;28;20180;-87
2022/11/03 11:05:53;;;;;;;9.20;7.80;;;;;;;;;;5000154;28;20183;-87
2022/11/03 11:09:00;;;;;;;9.10;7.73;;;;;;;;;;5000567;28;20212;-87
2022/11/03 11:12:12;;;;;;;13.73;8.10;;;;;;;;;;4992763;28;20193;-87
2022/11/03 11:15:40;;;;;;;8.73;7.77;;;;;;;;;;5030072;28;20192;-86
2022/11/03 11:18:44;;;;;;;9.97;7.60;;;;;;;;;;5023375;28;20212;-85
2022/11/03 11:21:53;;;;;;;10.27;8.43;;;;;;;;;;5023886;28;20196;-85
2022/11/03 11:24:58;;;;;;;12.17;7.90;;;;;;;;;;5016196;28;20181;-86
2022/11/03 11:28:11;;;;;;;9.27;7.20;;;;;;;;;;5004240;28;20651;-87
2022/11/03 11:31:21;;;;;;;10.60;7.37;;;;;;;;;;5004486;28;20181;-87
2022/11/03 11:34:34;;;;;;;10.50;7.47;;;;;;;;;;5005436;28;20662;-87
2022/11/03 11:37:38;;;;;;;12.07;8.37;;;;;;;;;;5014529;28;20228;-86
2022/11/03 11:40:49;;;;;;;10.93;8.63;;;;;;;;;;5015167;28;20217;-87
2022/11/03 11:44:32;;;;;;;11.87;8.37;;;;;;;;;;5010062;28;20253;-86
2022/11/03 11:47:40;;;;;;;11.87;9.07;;;;;;;;;;4999138;28;20198;-86
2022/11/03 11:50:44;;;;;;;9.83;8.17;;;;;;;;;;4996893;28;20215;-86
2022/11/03 11:53:50;;;;;;;11.97;8.70;;;;;;;;;;5008788;28;20624;-86
2022/11/03 11:56:54;;;;;;;10.10;8.90;;;;;;;;;;5005300;28;20541;-86
2022/11/03 11:59:58;;;;;;;17.97;8.77;;;;;;;;;;5016656;28;20622;-86
2022/11/03 12:03:05;;;;;;;10.77;8.63;;;;;;;;;;5002736;28;20198;-86
2022/11/03 12:06:11;;;;;;;12.13;8.40;;;;;;;;;;5014206;28;20216;-86
2022/11/03 12:09:22;;;;;;;10.43;8.30;;;;;;;;;;4995956;28;20221;-86
2022/11/03 12:12:33;;;;;;;11.63;7.93;;;;;;;;;;4993960;28;20201;-86
2022/11/03 12:16:06;;;;;;;13.97;8.90;;;;;;;;;;4996351;28;20189;-86
2022/11/03 12:19:46;;;;;;;13.87;8.60;;;;;;;;;;4998277;28;20564;-86
2022/11/03 12:22:50;;;;;;;9.83;8.20;;;;;;;;;;5016384;28;20190;-86
2022/11/03 12:25:54;;;;;;;11.50;9.10;;;;;;;;;;5001510;28;20180;-86
2022/11/03 12:28:58;;;;;;;10.93;8.53;;;;;;;;;;5001770;28;20224;-86
2022/11/03 12:32:03;;;;;;;13.43;12.03;;;;;;;;;;5015179;28;20228;-86
2022/11/03 12:35:08;;;;;;;14.17;9.43;;;;;;;;;;5015381;28;20196;-86
2022/11/03 12:38:12;;;;;;;12.27;9.20;;;;;;;;;;5015467;28;20241;-86
2022/11/03 12:41:24;;;;;;;11.67;8.93;;;;;;;;;;5007099;28;20189;-86
2022/11/03 12:44:27;;;;;;;12.53;8.30;;;;;;;;;;4996257;28;20195;-86
2022/11/03 12:47:32;;;;;;;10.83;8.40;;;;;;;;;;5005108;28;20197;-86
2022/11/03 12:50:38;;;;;;;12.60;9.27;;;;;;;;;;4988869;28;20201;-86
2022/11/03 12:53:42;;;;;;;12.63;9.23;;;;;;;;;;5014889;28;20208;-86
2022/11/03 12:56:47;;;;;;;9.07;7.83;;;;;;;;;;5026819;28;20544;-86
2022/11/03 12:59:51;;;;;;;11.07;9.87;;;;;;;;;;5000135;28;20216;-86
2022/11/03 13:02:55;;;;;;;13.43;9.27;;;;;;;;;;5006656;28;20251;-86
2022/11/03 13:06:03;;;;;;;11.67;8.97;;;;;;;;;;5019684;28;20185;-86
2022/11/03 13:09:07;;;;;;;10.87;8.30;;;;;;;;;;5014533;28;20212;-86
2022/11/03 13:15:35;;;;;;;9.83;8.77;;;;;;;;;;5014762;28;20192;-86
2022/11/03 13:18:39;;;;;;;10.13;8.50;;;;;;;;;;5015118;28;20232;-87
2022/11/03 13:21:43;;;;;;;12.07;8.40;;;;;;;;;;5004294;28;20547;-90
2022/11/03 13:24:47;;;;;;;10.70;8.70;;;;;;;;;;5014148;28;20191;-90
2022/11/03 13:27:54;;;;;;;12.13;9.47;;;;;;;;;;5014591;28;20177;-90
2022/11/03 13:31:31;;;;;;;10.23;9.10;;;;;;;;;;5036777;28;20196;-90
2022/11/03 13:34:35;;;;;;;11.00;9.27;;;;;;;;;;5002407;28;20193;-90
2022/11/03 13:37:40;;;;;;;12.53;9.23;;;;;;;;;;5002689;28;20575;-90
2022/11/03 13:40:44;;;;;;;13.23;8.70;;;;;;;;;;5002090;28;20192;-90
2022/11/03 13:43:48;;;;;;;13.03;9.20;;;;;;;;;;5001862;28;20198;-90
2022/11/03 13:46:52;;;;;;;11.53;9.10;;;;;;;;;;5012768;28;20180;-90
2022/11/03 13:49:59;;;;;;;12.37;8.07;;;;;;;;;;5024650;28;20216;-90
2022/11/03 13:53:03;;;;;;;9.67;8.10;;;;;;;;;;5000984;28;20211;-89
2022/11/03 13:56:07;;;;;;;8.63;7.33;;;;;;;;;;5001634;28;20185;-89
2022/11/03 13:59:11;;;;;;;10.93;8.50;;;;;;;;;;5013069;28;20232;-90
2022/11/03 14:02:15;;;;;;;10.67;7.60;;;;;;;;;;5023382;28;20544;-90
2022/11/03 14:05:19;;;;;;;9.23;7.80;;;;;;;;;;5000902;28;20196;-90
2022/11/03 14:08:24;;;;;;;11.97;7.87;;;;;;;;;;5012254;28;20212;-90
2022/11/03 14:14:50;;;;;;;10.33;8.07;;;;;;;;;;5022941;28;20206;-90
2022/11/03 14:17:54;;;;;;;10.00;7.93;;;;;;;;;;5000095;28;20240;-90
2022/11/03 14:20:59;;;;;;;9.83;7.50;;;;;;;;;;5000646;28;20189;-89
2022/11/03 14:24:04;;;;;;;12.07;8.70;;;;;;;;;;5022749;28;20624;-89
2022/11/03 14:27:09;;;;;;;11.87;8.23;;;;;;;;;;5001070;28;20243;-89
2022/11/03 14:30:13;;;;;;;9.60;7.40;;;;;;;;;;5000561;28;20247;-89
2022/11/03 14:33:16;;;;;;;13.00;8.77;;;;;;;;;;5022442;28;20201;-89
2022/11/03 14:36:21;;;;;;;11.00;7.93;;;;;;;;;;5011337;28;20553;-90
2022/11/03 14:44:15;;;;;;;13.67;9.47;;;;;;;;;;5013059;28;20204;-90
2022/11/03 14:47:22;;;;;;;10.63;8.40;;;;;;;;;;5022711;28;20668;-89
2022/11/03 14:50:31;;;;;;;12.23;8.80;;;;;;;;;;5000272;28;20671;-91
2022/11/03 14:53:35;;;;;;;10.90;8.13;;;;;;;;;;5000059;28;20186;-89
2022/11/03 14:56:39;;;;;;;12.90;9.30;;;;;;;;;;5023637;28;20188;-90
2022/11/03 14:59:43;;;;;;;9.93;8.17;;;;;;;;;;5001036;28;20227;-91
2022/11/03 15:02:49;;;;;;;12.47;8.70;;;;;;;;;;5012608;28;20185;-91
2022/11/03 15:05:54;;;;;;;12.20;9.00;;;;;;;;;;5000867;28;20194;-90
2022/11/03 15:08:58;;;;;;;14.27;9.03;;;;;;;;;;5023262;28;20229;-90
2022/11/03 15:12:08;;;;;;;11.07;9.03;;;;;;;;;;5000059;28;20185;-90
2022/11/03 15:15:13;;;;;;;13.20;9.73;;;;;;;;;;5012798;28;20198;-90
2022/11/03 15:18:17;;;;;;;12.90;9.77;;;;;;;;;;5011900;28;20244;-90
2022/11/03 15:21:21;;;;;;;12.17;8.87;;;;;;;;;;5023193;28;20188;-90
2022/11/03 15:24:26;;;;;;;14.50;9.13;;;;;;;;;;5012107;28;20191;-90
2022/11/03 15:27:30;;;;;;;19.03;10.70;;;;;;;;;;5011966;28;20680;-91
2022/11/03 15:30:34;;;;;;;13.67;9.67;;;;;;;;;;5012499;28;20200;-90
2022/11/03 15:33:38;;;;;;;12.17;9.57;;;;;;;;;;5012029;28;20655;-90
2022/11/03 15:36:42;;;;;;;13.53;10.30;;;;;;;;;;5000337;28;20200;-90
2022/11/03 15:39:46;;;;;;;18.17;10.63;;;;;;;;;;5013393;28;20223;-90
2022/11/03 15:42:51;;;;;;;13.83;10.93;;;;;;;;;;5012014;28;20221;-91
2022/11/03 15:46:05;;;;;;;17.27;12.73;;;;;;;;;;5003093;28;20201;-90
2022/11/03 15:49:11;;;;;;;16.13;12.73;;;;;;;;;;5015363;28;20232;-91
2022/11/03 15:52:19;;;;;;;19.87;12.60;;;;;;;;;;5003353;28;20667;-91
2022/11/03 15:55:24;;;;;;;16.13;12.70;;;;;;;;;;4992373;28;20189;-90
2022/11/03 15:58:32;;;;;;;20.67;12.60;;;;;;;;;;4982107;28;20596;-90
2022/11/03 16:01:36;;;;;;;19.37;12.43;;;;;;;;;;4995373;28;20195;-90
2022/11/03 16:04:41;;;;;;;16.23;11.87;;;;;;;;;;4995544;28;20191;-91
2022/11/03 16:07:45;;;;;;;20.73;11.40;;;;;;;;;;4995615;28;20178;-91
2022/11/03 16:10:50;;;;;;;20.13;11.33;;;;;;;;;;4997607;28;20212;-91
2022/11/03 16:13:54;;;;;;;18.23;11.77;;;;;;;;;;4987133;28;20212;-91
2022/11/03 16:16:58;;;;;;;17.73;11.93;;;;;;;;;;5014749;28;20182;-91
2022/11/03 16:20:03;;;;;;;19.20;11.03;;;;;;;;;;5002377;28;20227;-90
2022/11/03 16:23:08;;;;;;;15.73;11.27;;;;;;;;;;5027574;28;20182;-90
2022/11/03 16:26:12;;;;;;;17.53;10.37;;;;;;;;;;4991476;28;20211;-91
2022/11/03 16:29:20;;;;;;;16.27;11.60;;;;;;;;;;5002223;28;20227;-92
2022/11/03 16:32:34;;;;;;;15.10;10.87;;;;;;;;;;5001969;28;20181;-91
2022/11/03 16:36:04;;;;;;;14.57;10.63;;;;;;;;;;5001133;28;20182;-91
2022/11/03 16:39:14;;;;;;;15.00;10.13;;;;;;;;;;5012789;28;20233;-90
2022/11/03 16:42:18;;;;;;;18.23;11.53;;;;;;;;;;5000751;28;20212;-91
2022/11/03 16:45:25;;;;;;;16.03;10.73;;;;;;;;;;4988796;28;20198;-91
2022/11/03 16:48:29;;;;;;;20.30;11.83;;;;;;;;;;5010575;28;20230;-90
2022/11/03 16:51:34;;;;;;;20.00;12.77;;;;;;;;;;4987631;28;20559;-91
2022/11/03 16:54:38;;;;;;;16.87;11.37;;;;;;;;;;4987181;28;20201;-90
2022/11/03 16:57:42;;;;;;;17.53;11.93;;;;;;;;;;4987015;28;20194;-91
2022/11/03 17:00:47;;;;;;;19.00;11.83;;;;;;;;;;4987256;28;20188;-91
2022/11/03 17:03:52;;;;;;;16.03;11.60;;;;;;;;;;4987216;28;20191;-92
2022/11/03 17:06:56;;;;;;;18.77;11.83;;;;;;;;;;4998045;28;20205;-91
2022/11/03 17:10:01;;;;;;;17.50;11.20;;;;;;;;;;4986292;28;20580;-91
2022/11/03 17:13:05;;;;;;;15.67;10.73;;;;;;;;;;4989392;28;20214;-91
2022/11/03 17:16:09;;;;;;;15.17;10.50;;;;;;;;;;4987825;28;20189;-91
2022/11/03 17:19:14;;;;;;;15.23;10.47;;;;;;;;;;4965318;28;20236;-91
2022/11/03 17:22:20;;;;;;;17.10;10.17;;;;;;;;;;4999069;28;20210;-91
2022/11/03 17:25:41;;;;;;;14.53;9.73;;;;;;;;;;5011357;28;20222;-91
2022/11/03 17:28:45;;;;;;;18.87;10.33;;;;;;;;;;4998498;28;20226;-91
2022/11/03 17:31:50;;;;;;;16.97;10.40;;;;;;;;;;4964529;28;20182;-91
2022/11/03 17:34:56;;;;;;;18.10;11.03;;;;;;;;;;4965425;28;20182;-91
2022/11/03 17:38:03;;;;;;;33.13;16.43;;;;;;;;;;4976059;28;20194;-91
2022/11/03 17:41:10;;;;;;;21.43;11.33;;;;;;;;;;4994887;28;20557;-92
2022/11/03 17:44:16;;;;;;;17.63;10.40;;;;;;;;;;4990936;28;20688;-91
2022/11/03 17:55:56;;;;;;;14.67;9.57;;;;;;;;;;5015809;28;20198;-91
2022/11/03 17:59:13;;;;;;;13.63;9.73;;;;;;;;;;4998358;28;20237;-91
2022/11/03 18:28:40;;;;;;;17.40;11.40;;;;;;;;;;4919271;29;20743;-92
2022/11/03 18:38:00;;;;;;;19.10;12.73;;;;;;;;;;4903515;29;20192;-92
2022/11/03 18:46:19;;;;;;;16.97;12.27;;;;;;;;;;4954823;29;20316;-91
2022/11/03 18:51:15;;;;;;;18.70;12.47;;;;;;;;;;4929242;29;20207;-91
2022/11/03 19:00:00;;;;;;;15.47;11.27;;;;;;;;;;4984958;28;20237;-92
2022/11/03 19:19:20;;;;;;;17.13;12.37;;;;;;;;;;4921522;29;20243;-91
2022/11/03 19:23:33;;;;;;;17.87;11.23;;;;;;;;;;4905957;29;20228;-91
2022/11/03 19:36:59;;;;;;;18.43;12.70;;;;;;;;;;4988194;28;20228;-91
2022/11/03 19:40:07;;;;;;;17.63;12.67;;;;;;;;;;4971660;28;20601;-91
2022/11/03 19:43:11;;;;;;;21.93;13.10;;;;;;;;;;4961884;28;20178;-90
2022/11/03 19:46:18;;;;;;;20.40;13.33;;;;;;;;;;4964763;28;20684;-91
2022/11/03 19:49:23;;;;;;;19.17;13.80;;;;;;;;;;4975749;28;20224;-91
2022/11/03 19:52:29;;;;;;;26.17;15.27;;;;;;;;;;4964703;28;20194;-91
2022/11/03 19:55:40;;;;;;;23.17;14.57;;;;;;;;;;4965733;28;20569;-91
2022/11/03 19:58:44;;;;;;;24.27;14.53;;;;;;;;;;4964806;28;20230;-92
2022/11/03 20:01:48;;;;;;;23.23;15.77;;;;;;;;;;4975648;28;20198;-91
2022/11/03 20:04:53;;;;;;;23.33;15.13;;;;;;;;;;4966320;28;20209;-90
2022/11/03 20:08:01;;;;;;;24.40;15.57;;;;;;;;;;4976221;28;20548;-90
2022/11/03 20:11:05;;;;;;;25.17;15.63;;;;;;;;;;4975840;28;20196;-91
2022/11/03 20:14:16;;;;;;;23.23;15.13;;;;;;;;;;4965650;28;20191;-91
2022/11/03 20:17:31;;;;;;;20.17;14.63;;;;;;;;;;4990522;28;20190;-91
2022/11/03 20:20:36;;;;;;;21.27;15.30;;;;;;;;;;5005810;28;20209;-91